createdAt,value
2022-11-28T00:02:43.903Z,13.00
2022-11-28T00:05:48.778Z,11.85
2022-11-28T00:08:54.457Z,11.57
2022-11-28T00:11:59.487Z,10.68
2022-11-28T00:15:06.123Z,9.63
2022-11-28T00:18:11.412Z,9.00
2022-11-28T00:21:17.159Z,7.82
2022-11-28T00:24:22.285Z,6.85
2022-11-28T00:27:27.273Z,7.28
2022-11-28T00:30:32.225Z,7.88
2022-11-28T00:33:37.551Z,7.20
2022-11-28T00:36:47.599Z,6.80
2022-11-28T00:39:52.735Z,7.63
2022-11-28T00:42:57.795Z,8.88
2022-11-28T00:46:03.706Z,8.57
2022-11-28T00:49:09.065Z,8.02
2022-11-28T00:52:14.198Z,7.88
2022-11-28T00:55:19.096Z,8.57
2022-11-28T00:58:23.943Z,7.80
2022-11-28T01:01:38.517Z,7.20
2022-11-28T01:04:43.794Z,7.03
2022-11-28T01:07:49.023Z,6.78
2022-11-28T01:10:54.135Z,7.10
2022-11-28T01:14:00.972Z,6.60
2022-11-28T01:17:06.232Z,6.90
2022-11-28T01:20:12.101Z,6.07
2022-11-28T01:23:18.517Z,6.45
2022-11-28T01:26:26.939Z,6.85
2022-11-28T01:29:31.937Z,6.45
2022-11-28T01:32:36.820Z,6.55
2022-11-28T01:35:41.663Z,7.20
2022-11-28T01:38:47.231Z,6.60
2022-11-28T01:41:52.478Z,6.03
2022-11-28T01:45:16.161Z,6.15
2022-11-28T01:48:29.648Z,6.70
2022-11-28T01:51:35.347Z,6.63
2022-11-28T01:54:43.904Z,6.80
2022-11-28T01:57:49.227Z,7.00
2022-11-28T02:00:53.765Z,6.90
2022-11-28T02:03:59.050Z,6.75
2022-11-28T02:07:03.976Z,5.97
2022-11-28T02:10:12.283Z,7.07
2022-11-28T02:13:44.439Z,5.97
2022-11-28T02:17:18.017Z,6.25
2022-11-28T02:20:51.157Z,6.22
2022-11-28T02:24:36.516Z,6.13
2022-11-28T02:28:03.428Z,6.03
2022-11-28T02:31:54.841Z,5.82
2022-11-28T02:35:08.777Z,5.90
2022-11-28T02:38:39.164Z,6.43
2022-11-28T02:41:52.832Z,6.22
2022-11-28T02:45:27.827Z,5.72
2022-11-28T02:48:49.415Z,5.78
2022-11-28T02:52:03.448Z,5.80
2022-11-28T02:55:08.619Z,6.05
2022-11-28T02:58:13.726Z,5.50
2022-11-28T03:01:28.375Z,5.50
2022-11-28T03:05:00.671Z,5.70
2022-11-28T03:08:33.708Z,5.38
2022-11-28T03:12:19.004Z,5.53
2022-11-28T03:15:32.732Z,5.05
2022-11-28T03:19:25.584Z,5.65
2022-11-28T03:22:38.313Z,6.43
2022-11-28T03:26:10.552Z,5.50
2022-11-28T03:29:19.330Z,5.28
2022-11-28T03:32:28.575Z,5.50
2022-11-28T03:35:39.798Z,5.68
2022-11-28T03:38:49.821Z,5.68
2022-11-28T03:42:03.835Z,5.57
2022-11-28T03:45:31.998Z,5.50
2022-11-28T03:48:45.429Z,5.38
2022-11-28T03:51:56.756Z,5.22
2022-11-28T03:55:35.035Z,5.60
2022-11-28T03:59:10.808Z,5.22
2022-11-28T04:02:55.385Z,5.25
2022-11-28T04:06:07.443Z,5.03
2022-11-28T04:09:21.495Z,4.82
2022-11-28T04:12:35.496Z,6.00
2022-11-28T04:16:13.280Z,6.70
2022-11-28T04:19:29.220Z,6.35
2022-11-28T04:22:39.427Z,6.40
2022-11-28T04:26:02.034Z,6.05
2022-11-28T04:29:11.418Z,6.05
2022-11-28T04:32:19.088Z,5.78
2022-11-28T04:35:34.180Z,5.43
2022-11-28T04:38:40.890Z,5.53
2022-11-28T04:41:53.059Z,5.03
2022-11-28T04:45:13.826Z,5.18
2022-11-28T04:48:19.202Z,5.50
2022-11-28T04:51:50.063Z,4.45
2022-11-28T04:55:00.997Z,4.32
2022-11-28T04:58:34.436Z,4.82
2022-11-28T05:01:41.499Z,4.35
2022-11-28T05:04:47.420Z,4.03
2022-11-28T05:07:53.028Z,4.38
2022-11-28T05:10:58.142Z,4.93
2022-11-28T05:14:03.306Z,4.55
2022-11-28T05:17:09.668Z,5.10
2022-11-28T05:20:15.751Z,5.05
2022-11-28T05:23:20.735Z,5.10
2022-11-28T05:26:26.216Z,5.32
2022-11-28T05:29:31.343Z,6.00
2022-11-28T05:32:36.517Z,5.25
2022-11-28T05:35:41.285Z,5.13
2022-11-28T05:38:46.455Z,5.15
2022-11-28T05:41:51.711Z,4.88
2022-11-28T05:44:56.821Z,4.68
2022-11-28T05:48:01.753Z,4.63
2022-11-28T05:51:07.493Z,4.40
2022-11-28T05:54:12.268Z,5.28
2022-11-28T05:57:17.244Z,4.53
2022-11-28T06:00:22.872Z,4.88
2022-11-28T06:03:27.831Z,5.28
2022-11-28T06:06:35.039Z,4.50
2022-11-28T06:09:40.303Z,4.45
2022-11-28T06:12:45.064Z,4.68
2022-11-28T06:15:49.846Z,5.75
2022-11-28T06:18:57.547Z,6.18
2022-11-28T06:22:02.742Z,6.40
2022-11-28T06:25:07.829Z,5.63
2022-11-28T06:28:12.864Z,5.85
2022-11-28T06:31:28.538Z,5.55
2022-11-28T06:34:33.667Z,5.78
2022-11-28T06:37:38.497Z,6.05
2022-11-28T06:40:43.619Z,5.35
2022-11-28T06:43:49.528Z,5.40
2022-11-28T06:46:55.139Z,5.68
2022-11-28T06:49:59.932Z,5.13
2022-11-28T06:53:04.748Z,5.60
2022-11-28T06:56:14.098Z,5.43
2022-11-28T06:59:19.055Z,6.82
2022-11-28T07:02:25.206Z,13.00
2022-11-28T07:05:31.071Z,8.45
2022-11-28T07:08:36.722Z,6.45
2022-11-28T07:11:42.856Z,6.50
2022-11-28T07:14:47.918Z,6.15
2022-11-28T07:17:53.725Z,6.22
2022-11-28T07:20:58.638Z,6.05
2022-11-28T07:24:03.529Z,5.57
2022-11-28T07:27:08.367Z,5.85
2022-11-28T07:30:13.711Z,5.60
2022-11-28T07:33:18.845Z,5.95
2022-11-28T07:36:26.119Z,5.70
2022-11-28T07:39:31.168Z,5.75
2022-11-28T07:42:36.809Z,5.40
2022-11-28T07:45:59.518Z,5.45
2022-11-28T07:49:05.886Z,4.97
2022-11-28T07:52:10.639Z,5.80
2022-11-28T07:55:15.583Z,5.90
2022-11-28T07:58:22.091Z,5.78
2022-11-28T08:01:30.002Z,5.55
2022-11-28T08:04:34.958Z,6.20
2022-11-28T08:07:39.997Z,7.53
2022-11-28T08:10:45.740Z,7.80
2022-11-28T08:13:53.789Z,10.75
2022-11-28T08:17:01.642Z,9.82
2022-11-28T08:20:07.390Z,9.77
2022-11-28T08:23:12.327Z,9.05
2022-11-28T08:26:17.279Z,9.18
2022-11-28T08:29:22.415Z,9.30
2022-11-28T08:32:30.100Z,8.88
2022-11-28T08:35:35.061Z,8.00
2022-11-28T08:38:41.263Z,7.65
2022-11-28T08:41:46.481Z,8.52
2022-11-28T08:44:51.417Z,7.95
2022-11-28T08:47:56.226Z,7.25
2022-11-28T08:51:01.004Z,7.63
2022-11-28T08:54:06.042Z,7.35
2022-11-28T08:57:11.146Z,7.03
2022-11-28T09:00:17.077Z,7.50
2022-11-28T09:03:22.081Z,7.43
2022-11-28T09:06:26.768Z,7.30
2022-11-28T09:09:32.990Z,8.57
2022-11-28T09:12:37.713Z,7.78
2022-11-28T09:15:45.315Z,7.75
2022-11-28T09:18:51.140Z,8.02
2022-11-28T09:21:57.892Z,7.90
2022-11-28T09:25:03.219Z,7.63
2022-11-28T09:28:08.491Z,7.97
2022-11-28T09:31:15.135Z,8.25
2022-11-28T09:34:20.115Z,7.82
2022-11-28T09:37:24.950Z,6.50
2022-11-28T09:40:42.894Z,7.13
2022-11-28T09:43:53.491Z,6.70
2022-11-28T09:47:06.151Z,6.50
2022-11-28T09:50:28.493Z,6.97
2022-11-28T09:53:49.175Z,6.47
2022-11-28T09:56:54.221Z,9.23
2022-11-28T09:59:59.331Z,14.45
2022-11-28T10:03:36.174Z,7.18
2022-11-28T10:07:15.930Z,4.80
2022-11-28T10:10:36.549Z,4.50
2022-11-28T10:14:26.613Z,3.97
2022-11-28T10:18:03.142Z,4.82
2022-11-28T10:21:42.316Z,4.78
2022-11-28T10:24:55.513Z,4.78
2022-11-28T10:28:01.139Z,4.40
2022-11-28T10:31:11.156Z,5.65
2022-11-28T10:34:28.529Z,4.65
2022-11-28T10:37:36.872Z,5.18
2022-11-28T10:40:52.667Z,5.13
2022-11-28T10:44:29.008Z,4.72
2022-11-28T10:48:07.396Z,4.50
2022-11-28T10:51:38.667Z,3.78
2022-11-28T10:54:48.874Z,4.82
2022-11-28T10:58:18.593Z,16.02
2022-11-28T11:01:23.835Z,4.53
2022-11-28T11:04:31.704Z,3.35
2022-11-28T11:07:36.852Z,4.70
2022-11-28T11:10:51.091Z,5.15
2022-11-28T11:14:01.609Z,4.78
2022-11-28T11:17:07.121Z,4.10
2022-11-28T11:20:29.290Z,4.07
2022-11-28T11:23:38.262Z,3.75
2022-11-28T11:26:46.340Z,3.30
2022-11-28T11:29:52.091Z,2.60
2022-11-28T11:32:59.891Z,2.80
2022-11-28T11:36:18.954Z,2.85
2022-11-28T11:39:25.591Z,2.60
2022-11-28T11:42:33.382Z,2.60
2022-11-28T11:45:38.733Z,2.65
2022-11-28T11:48:50.750Z,2.95
2022-11-28T11:51:58.219Z,2.90
2022-11-28T11:55:18.120Z,3.08
2022-11-28T11:58:47.064Z,2.53
2022-11-28T12:01:57.665Z,2.60
2022-11-28T12:05:17.150Z,2.55
2022-11-28T12:08:52.951Z,2.55
2022-11-28T12:12:13.687Z,2.80
2022-11-28T12:15:44.964Z,2.70
2022-11-28T12:19:18.887Z,2.60
2022-11-28T12:22:40.990Z,2.65
2022-11-28T12:25:56.180Z,2.50
2022-11-28T12:32:54.616Z,2.75
2022-11-28T12:36:17.617Z,2.55
2022-11-28T12:40:10.710Z,2.65
2022-11-28T12:43:37.081Z,2.53
2022-11-28T12:47:08.021Z,2.58
2022-11-28T12:50:22.617Z,2.60
2022-11-28T12:53:55.126Z,3.08
2022-11-28T12:57:42.797Z,3.40
2022-11-28T13:01:34.384Z,3.10
2022-11-28T13:05:21.864Z,3.28
2022-11-28T13:08:35.687Z,3.00
2022-11-28T13:12:12.064Z,2.80
2022-11-28T13:15:52.006Z,2.80
2022-11-28T13:19:26.656Z,2.88
2022-11-28T13:23:20.777Z,2.90
2022-11-28T13:26:58.789Z,2.90
2022-11-28T13:30:22.828Z,3.10
2022-11-28T13:33:56.552Z,3.28
2022-11-28T13:41:18.070Z,3.60
2022-11-28T13:45:07.335Z,3.53
2022-11-28T13:48:57.452Z,3.85
2022-11-28T13:52:17.450Z,3.47
2022-11-28T13:55:40.793Z,3.40
2022-11-28T13:59:00.724Z,3.63
2022-11-28T14:02:22.573Z,3.25
2022-11-28T14:05:34.557Z,3.22
2022-11-28T14:08:42.283Z,3.75
2022-11-28T14:12:07.833Z,3.50
2022-11-28T14:15:37.214Z,3.60
2022-11-28T14:19:38.492Z,4.32
2022-11-28T14:22:56.392Z,3.47
2022-11-28T14:26:01.553Z,4.05
2022-11-28T14:29:34.004Z,3.42
2022-11-28T14:32:41.853Z,3.85
2022-11-28T14:35:54.523Z,3.20
2022-11-28T14:39:15.833Z,3.28
2022-11-28T14:42:58.869Z,3.45
2022-11-28T14:45:50.966Z,3.38
2022-11-28T14:48:59.352Z,3.10
2022-11-28T14:52:39.085Z,3.35
2022-11-28T14:55:46.104Z,4.10
2022-11-28T14:58:55.192Z,4.00
2022-11-28T15:02:13.781Z,4.32
2022-11-28T15:05:49.943Z,4.40
2022-11-28T15:09:11.797Z,6.32
2022-11-28T15:12:30.966Z,5.13
2022-11-28T15:15:36.108Z,4.18
2022-11-28T15:18:48.995Z,4.05
2022-11-28T15:21:55.812Z,4.90
2022-11-28T15:25:00.666Z,4.28
2022-11-28T15:28:15.099Z,4.50
2022-11-28T15:31:22.737Z,4.55
2022-11-28T15:34:35.769Z,14.63
2022-11-28T15:37:54.632Z,20.63
2022-11-28T15:41:00.811Z,27.33
2022-11-28T15:44:06.304Z,30.80
2022-11-28T15:47:19.798Z,8.85
2022-11-28T15:50:30.562Z,5.35
2022-11-28T15:53:42.257Z,6.32
2022-11-28T15:56:57.469Z,5.65
2022-11-28T16:00:05.103Z,5.13
2022-11-28T16:03:26.404Z,5.07
2022-11-28T16:06:35.305Z,4.32
2022-11-28T16:09:51.398Z,4.55
2022-11-28T16:13:10.384Z,4.30
2022-11-28T16:16:19.620Z,4.88
2022-11-28T16:19:34.261Z,4.55
2022-11-28T16:22:39.351Z,3.97
2022-11-28T16:25:44.334Z,5.35
2022-11-28T16:29:07.251Z,5.22
2022-11-28T16:32:38.071Z,10.75
2022-11-28T16:35:43.215Z,10.40
2022-11-28T16:38:50.598Z,8.18
2022-11-28T16:42:12.147Z,11.10
2022-11-28T16:45:21.924Z,21.27
2022-11-28T16:48:30.992Z,30.00
2022-11-28T16:51:39.034Z,24.27
2022-11-28T16:54:44.579Z,25.73
2022-11-28T16:58:14.304Z,29.30
2022-11-28T17:01:21.519Z,25.08
2022-11-28T17:04:31.771Z,22.25
2022-11-28T17:07:36.915Z,21.73
2022-11-28T17:10:42.239Z,22.70
2022-11-28T17:13:47.659Z,20.58
2022-11-28T17:16:52.952Z,19.15
2022-11-28T17:19:58.304Z,18.75
2022-11-28T17:23:04.392Z,16.80
2022-11-28T17:26:10.735Z,17.40
2022-11-28T17:29:16.759Z,17.63
2022-11-28T17:32:22.126Z,17.05
2022-11-28T17:35:30.430Z,22.85
2022-11-28T17:38:36.502Z,21.77
2022-11-28T17:41:42.285Z,17.45
2022-11-28T17:44:47.418Z,16.30
2022-11-28T17:47:52.887Z,12.55
2022-11-28T17:50:59.359Z,15.02
2022-11-28T17:54:05.542Z,11.35
2022-11-28T17:57:10.865Z,12.23
2022-11-28T18:00:17.180Z,10.10
2022-11-28T18:03:23.556Z,8.90
2022-11-28T18:06:36.250Z,10.18
2022-11-28T18:09:41.733Z,12.55
2022-11-28T18:12:47.311Z,12.85
2022-11-28T18:15:54.097Z,14.45
2022-11-28T18:18:59.826Z,15.30
2022-11-28T18:22:07.639Z,18.85
2022-11-28T18:25:13.049Z,53.35
2022-11-28T18:28:19.248Z,17.38
2022-11-28T18:31:28.809Z,14.68
2022-11-28T18:34:34.050Z,17.27
2022-11-28T18:37:39.377Z,14.63
2022-11-28T18:40:44.379Z,14.75
2022-11-28T18:44:01.279Z,17.25
2022-11-28T18:47:06.407Z,33.25
2022-11-28T18:50:11.474Z,26.67
2022-11-28T18:53:16.824Z,15.98
2022-11-28T18:56:23.072Z,24.60
2022-11-28T18:59:28.586Z,14.63
2022-11-28T19:02:34.348Z,12.95
2022-11-28T19:05:42.335Z,11.13
2022-11-28T19:08:48.800Z,14.40
2022-11-28T19:11:55.373Z,13.30
2022-11-28T19:15:02.674Z,11.75
2022-11-28T19:18:08.470Z,9.63
2022-11-28T19:21:16.905Z,10.73
2022-11-28T19:24:22.123Z,63.08
2022-11-28T19:27:29.917Z,20.13
2022-11-28T19:30:35.181Z,8.88
2022-11-28T19:33:42.770Z,9.15
2022-11-28T19:36:51.912Z,17.05
2022-11-28T19:40:02.155Z,13.55
2022-11-28T19:43:07.784Z,17.65
2022-11-28T19:46:14.221Z,14.05
2022-11-28T19:49:22.711Z,23.55
2022-11-28T19:52:28.336Z,24.52
2022-11-28T19:55:34.832Z,11.05
2022-11-28T19:58:40.084Z,11.40
2022-11-28T20:01:48.163Z,15.57
2022-11-28T20:04:53.668Z,10.55
2022-11-28T20:07:58.970Z,9.68
2022-11-28T20:11:13.546Z,23.80
2022-11-28T20:14:19.887Z,14.82
2022-11-28T20:17:24.657Z,39.42
2022-11-28T20:20:29.699Z,9.35
2022-11-28T20:23:43.307Z,15.85
2022-11-28T20:26:50.495Z,17.63
2022-11-28T20:29:56.806Z,14.25
2022-11-28T20:33:01.885Z,23.05
2022-11-28T20:36:14.596Z,17.38
2022-11-28T20:39:20.008Z,13.93
2022-11-28T20:42:24.886Z,24.63
2022-11-28T20:45:29.864Z,25.15
2022-11-28T20:48:35.664Z,21.67
2022-11-28T20:51:41.090Z,17.83
2022-11-28T20:54:46.113Z,12.48
2022-11-28T20:57:50.876Z,9.55
2022-11-28T21:00:56.350Z,9.85
2022-11-28T21:04:03.594Z,8.25
2022-11-28T21:07:09.605Z,7.68
2022-11-28T21:10:15.818Z,8.52
2022-11-28T21:13:22.645Z,7.28
2022-11-28T21:16:31.322Z,6.35
2022-11-28T21:19:36.147Z,6.53
2022-11-28T21:22:41.183Z,5.82
2022-11-28T21:25:46.110Z,6.63
2022-11-28T21:28:54.093Z,7.13
2022-11-28T21:31:58.862Z,7.55
2022-11-28T21:35:04.683Z,7.63
2022-11-28T21:38:13.050Z,8.38
2022-11-28T21:41:18.773Z,7.90
2022-11-28T21:44:23.890Z,9.23
2022-11-28T21:47:28.975Z,6.55
2022-11-28T21:50:33.967Z,8.02
2022-11-28T21:53:39.032Z,7.95
2022-11-28T21:56:43.973Z,6.97
2022-11-28T21:59:49.108Z,8.30
2022-11-28T22:02:58.225Z,7.00
2022-11-28T22:06:23.927Z,6.32
2022-11-28T22:09:29.833Z,7.40
2022-11-28T22:12:39.258Z,8.35
2022-11-28T22:15:44.574Z,8.13
2022-11-28T22:18:50.609Z,8.80
2022-11-28T22:21:56.151Z,7.53
2022-11-28T22:25:02.163Z,7.70
2022-11-28T22:28:06.836Z,6.55
2022-11-28T22:31:17.315Z,6.38
2022-11-28T22:34:22.620Z,5.70
2022-11-28T22:37:27.370Z,9.50
2022-11-28T22:40:32.253Z,5.78
2022-11-28T22:43:37.722Z,5.22
2022-11-28T22:46:42.877Z,5.18
2022-11-28T22:49:48.205Z,4.80
2022-11-28T22:52:52.907Z,4.85
2022-11-28T22:56:04.496Z,5.57
2022-11-28T22:59:15.258Z,4.72
2022-11-28T23:02:20.348Z,5.07
2022-11-28T23:05:25.637Z,5.03
2022-11-28T23:08:31.336Z,5.10
2022-11-28T23:11:37.881Z,5.32
2022-11-28T23:14:43.436Z,5.07
2022-11-28T23:17:48.796Z,4.93
2022-11-28T23:20:56.171Z,5.05
2022-11-28T23:24:01.205Z,4.80
2022-11-28T23:27:06.183Z,5.10
2022-11-28T23:30:11.886Z,5.25
2022-11-28T23:33:17.154Z,5.40
2022-11-28T23:36:26.998Z,4.68
2022-11-28T23:39:31.750Z,4.28
2022-11-28T23:42:44.445Z,4.70
2022-11-28T23:45:49.694Z,4.95
2022-11-28T23:48:54.319Z,4.80
2022-11-28T23:51:59.194Z,4.20
2022-11-28T23:55:04.608Z,5.10
2022-11-28T23:58:09.620Z,5.00
